Time;durP1;ratioP1;P1;durP2;ratioP2;P2;SDS_P1;SDS_P2;PMS_P1;PMS_P2;Temp;Humidity;BMP_temperature;BMP_pressure;BME280_temperature;BME280_humidity;BME280_pressure;Samples;Min_cycle;Max_cycle;Signal;HPM_P1;HPM_P2
2021/10/23 00:00:41;;;;;;;6.78;2.03;;;;;;;;;;5065688;28;20028;-55
2021/10/23 00:03:06;;;;;;;4.70;1.77;;;;;;;;;;5067819;28;20514;-57
2021/10/23 00:05:32;;;;;;;4.95;2.20;;;;;;;;;;5069645;28;20115;-54
2021/10/23 00:07:58;;;;;;;14.80;2.97;;;;;;;;;;5064755;28;20040;-55
2021/10/23 00:10:23;;;;;;;7.97;3.72;;;;;;;;;;5066465;28;20052;-55
2021/10/23 00:12:49;;;;;;;7.65;2.88;;;;;;;;;;5070726;28;20063;-56
2021/10/23 00:15:14;;;;;;;5.82;2.20;;;;;;;;;;5065080;28;20032;-54
2021/10/23 00:17:40;;;;;;;6.55;1.90;;;;;;;;;;5068660;28;20048;-56
2021/10/23 00:20:06;;;;;;;6.28;2.28;;;;;;;;;;5067022;28;20453;-56
2021/10/23 00:22:32;;;;;;;6.38;1.90;;;;;;;;;;5067705;28;20036;-57
2021/10/23 00:24:59;;;;;;;6.63;1.88;;;;;;;;;;5067524;28;20028;-56
2021/10/23 00:27:25;;;;;;;4.93;2.10;;;;;;;;;;5070973;28;20032;-55
2021/10/23 00:29:52;;;;;;;4.38;1.95;;;;;;;;;;5064338;28;20406;-56
2021/10/23 00:32:18;;;;;;;7.97;2.10;;;;;;;;;;5068282;28;20374;-57
2021/10/23 00:34:43;;;;;;;8.85;3.25;;;;;;;;;;5069412;28;20024;-57
2021/10/23 00:37:09;;;;;;;9.55;2.17;;;;;;;;;;5064146;28;20028;-54
2021/10/23 00:39:34;;;;;;;7.88;2.05;;;;;;;;;;5066946;28;20025;-54
2021/10/23 00:41:59;;;;;;;6.97;1.70;;;;;;;;;;5068330;28;20028;-55
2021/10/23 00:44:31;;;;;;;5.28;1.90;;;;;;;;;;5070008;28;20039;-56
2021/10/23 00:47:00;;;;;;;4.75;1.80;;;;;;;;;;5067375;28;20646;-58
2021/10/23 00:49:26;;;;;;;8.32;2.67;;;;;;;;;;5064427;28;20028;-56
2021/10/23 00:51:51;;;;;;;6.07;2.25;;;;;;;;;;5067823;28;20024;-56
2021/10/23 00:54:17;;;;;;;6.32;2.03;;;;;;;;;;5064857;28;20371;-56
2021/10/23 00:56:42;;;;;;;10.57;2.33;;;;;;;;;;5073391;28;20387;-56
2021/10/23 00:59:08;;;;;;;6.03;2.03;;;;;;;;;;5065105;28;20302;-56
2021/10/23 01:01:33;;;;;;;6.95;2.08;;;;;;;;;;5065096;28;20020;-56
2021/10/23 01:03:59;;;;;;;5.53;2.13;;;;;;;;;;5068008;28;20343;-56
2021/10/23 01:06:24;;;;;;;7.57;2.40;;;;;;;;;;5065333;28;20036;-56
2021/10/23 01:08:50;;;;;;;5.47;1.90;;;;;;;;;;5066395;28;20020;-56
2021/10/23 01:11:15;;;;;;;6.88;1.90;;;;;;;;;;5069467;28;20025;-56
2021/10/23 01:13:41;;;;;;;5.20;1.60;;;;;;;;;;5072491;28;20025;-55
2021/10/23 01:16:06;;;;;;;8.77;2.08;;;;;;;;;;5070605;28;20044;-55
2021/10/23 01:18:31;;;;;;;6.68;1.40;;;;;;;;;;5073621;28;20024;-56
2021/10/23 01:20:57;;;;;;;6.55;1.90;;;;;;;;;;5072608;28;20035;-56
2021/10/23 01:23:22;;;;;;;6.38;1.80;;;;;;;;;;5068667;28;20032;-56
2021/10/23 01:25:48;;;;;;;5.63;1.75;;;;;;;;;;5067559;28;20182;-56
2021/10/23 01:28:13;;;;;;;3.05;1.42;;;;;;;;;;5069565;28;20758;-55
2021/10/23 01:30:38;;;;;;;6.65;2.05;;;;;;;;;;5073106;28;20020;-56
2021/10/23 01:33:04;;;;;;;5.03;1.65;;;;;;;;;;5066874;28;20033;-56
2021/10/23 01:35:30;;;;;;;9.43;2.28;;;;;;;;;;5070347;28;20021;-56
2021/10/23 01:37:56;;;;;;;8.00;1.65;;;;;;;;;;5072667;28;20028;-55
2021/10/23 01:40:25;;;;;;;4.47;2.05;;;;;;;;;;5068664;28;20071;-55
2021/10/23 01:42:51;;;;;;;7.25;2.00;;;;;;;;;;5070675;28;20078;-55
2021/10/23 01:45:16;;;;;;;3.83;2.00;;;;;;;;;;5065765;28;20032;-57
2021/10/23 01:47:43;;;;;;;4.80;1.63;;;;;;;;;;5068919;28;20046;-56
2021/10/23 01:50:20;;;;;;;6.22;2.03;;;;;;;;;;5070163;28;20503;-56
2021/10/23 01:52:46;;;;;;;8.07;1.70;;;;;;;;;;5071019;28;20029;-56
2021/10/23 01:55:13;;;;;;;4.18;1.80;;;;;;;;;;5067389;28;20036;-55
2021/10/23 01:57:39;;;;;;;10.65;1.75;;;;;;;;;;5066584;28;20036;-55
2021/10/23 02:00:06;;;;;;;5.63;1.80;;;;;;;;;;5067922;28;20020;-56
2021/10/23 02:02:32;;;;;;;7.88;2.10;;;;;;;;;;5069802;28;20039;-56
2021/10/23 02:04:57;;;;;;;8.52;2.17;;;;;;;;;;5070800;28;20024;-55
2021/10/23 02:07:22;;;;;;;3.33;1.80;;;;;;;;;;5068022;28;20024;-56
2021/10/23 02:09:48;;;;;;;5.03;2.05;;;;;;;;;;5081057;28;20020;-56
2021/10/23 02:12:13;;;;;;;5.32;1.80;;;;;;;;;;5070986;28;20066;-58
2021/10/23 02:14:39;;;;;;;6.72;2.00;;;;;;;;;;5069869;28;20438;-56
2021/10/23 02:17:04;;;;;;;5.35;2.05;;;;;;;;;;5066838;28;20024;-55
2021/10/23 02:19:30;;;;;;;5.85;1.75;;;;;;;;;;5068167;28;20032;-57
2021/10/23 02:21:56;;;;;;;6.88;2.65;;;;;;;;;;5069911;28;20454;-56
2021/10/23 02:24:22;;;;;;;4.65;2.03;;;;;;;;;;5066162;28;20028;-55
2021/10/23 02:26:47;;;;;;;6.72;2.03;;;;;;;;;;5067466;28;20036;-56
2021/10/23 02:29:13;;;;;;;8.13;2.60;;;;;;;;;;5067041;28;20020;-56
2021/10/23 02:31:38;;;;;;;7.90;2.20;;;;;;;;;;5067901;28;20028;-56
2021/10/23 02:34:04;;;;;;;7.63;2.05;;;;;;;;;;5067838;28;20663;-56
2021/10/23 02:36:29;;;;;;;9.38;2.22;;;;;;;;;;5069271;28;20528;-56
2021/10/23 02:38:55;;;;;;;6.38;2.40;;;;;;;;;;5044366;28;20119;-55
2021/10/23 02:41:24;;;;;;;8.00;2.17;;;;;;;;;;5067576;28;20119;-56
2021/10/23 02:43:49;;;;;;;7.30;2.47;;;;;;;;;;5067807;28;20028;-56
2021/10/23 02:46:15;;;;;;;8.18;2.50;;;;;;;;;;5066890;28;20498;-55
2021/10/23 02:48:41;;;;;;;6.55;2.40;;;;;;;;;;5067742;28;20408;-56
2021/10/23 02:51:06;;;;;;;12.77;2.40;;;;;;;;;;5068644;28;20052;-57
2021/10/23 02:53:32;;;;;;;9.95;2.38;;;;;;;;;;5066678;28;20079;-55
2021/10/23 02:55:57;;;;;;;4.47;1.75;;;;;;;;;;5067314;28;20036;-56
2021/10/23 02:58:23;;;;;;;8.10;2.05;;;;;;;;;;5065919;28;20033;-55
2021/10/23 03:00:49;;;;;;;8.25;2.20;;;;;;;;;;5070613;28;20032;-57
2021/10/23 03:03:14;;;;;;;7.63;2.10;;;;;;;;;;5067645;28;20029;-55
2021/10/23 03:05:39;;;;;;;4.63;1.63;;;;;;;;;;5069018;28;20056;-56
2021/10/23 03:08:05;;;;;;;7.80;2.85;;;;;;;;;;5066428;28;20028;-56
2021/10/23 03:10:30;;;;;;;5.65;1.95;;;;;;;;;;5068220;28;20651;-56
2021/10/23 03:12:56;;;;;;;9.90;2.25;;;;;;;;;;5070024;28;20043;-56
2021/10/23 03:15:21;;;;;;;6.85;2.55;;;;;;;;;;5072595;28;20165;-57
2021/10/23 03:17:46;;;;;;;7.55;2.05;;;;;;;;;;5067705;28;20059;-57
2021/10/23 03:20:12;;;;;;;4.88;2.33;;;;;;;;;;5065546;28;20479;-56
2021/10/23 03:22:38;;;;;;;4.90;1.85;;;;;;;;;;5064650;28;20028;-57
2021/10/23 03:25:03;;;;;;;8.80;2.28;;;;;;;;;;5066933;28;20029;-58
2021/10/23 03:27:29;;;;;;;7.97;2.00;;;;;;;;;;5063036;28;20427;-56
2021/10/23 03:29:54;;;;;;;3.85;1.65;;;;;;;;;;5069996;28;20288;-55
2021/10/23 03:32:20;;;;;;;5.18;2.30;;;;;;;;;;5069364;28;20099;-55
2021/10/23 03:34:46;;;;;;;5.80;2.20;;;;;;;;;;5069533;28;20040;-57
2021/10/23 03:37:11;;;;;;;7.15;2.63;;;;;;;;;;5067000;28;20028;-55
2021/10/23 03:39:39;;;;;;;10.10;2.40;;;;;;;;;;5066759;28;20032;-56
2021/10/23 03:42:05;;;;;;;5.43;1.75;;;;;;;;;;5065282;28;20028;-56
2021/10/23 03:44:31;;;;;;;6.03;1.70;;;;;;;;;;5067598;28;20039;-55
2021/10/23 03:46:56;;;;;;;9.07;2.20;;;;;;;;;;5065318;28;20070;-56
2021/10/23 03:49:21;;;;;;;4.90;2.10;;;;;;;;;;5065258;28;20493;-55
2021/10/23 03:51:47;;;;;;;5.43;1.98;;;;;;;;;;5068181;28;20021;-57
2021/10/23 03:54:13;;;;;;;5.47;2.00;;;;;;;;;;5066252;28;20016;-57
2021/10/23 03:56:38;;;;;;;8.27;1.95;;;;;;;;;;5068889;28;20375;-57
2021/10/23 03:59:04;;;;;;;5.10;2.00;;;;;;;;;;5065650;28;20035;-56
2021/10/23 04:01:29;;;;;;;5.18;2.00;;;;;;;;;;5067086;28;20083;-56
2021/10/23 04:03:54;;;;;;;8.35;2.15;;;;;;;;;;5067100;28;20078;-57
2021/10/23 04:06:20;;;;;;;5.40;1.70;;;;;;;;;;5067263;28;20020;-56
2021/10/23 04:08:45;;;;;;;5.45;1.95;;;;;;;;;;5067641;28;20111;-56
2021/10/23 04:11:11;;;;;;;4.43;1.88;;;;;;;;;;5067149;28;20236;-55
2021/10/23 04:13:36;;;;;;;7.15;1.92;;;;;;;;;;5065594;28;20416;-56
2021/10/23 04:16:02;;;;;;;6.13;1.98;;;;;;;;;;5065457;28;20032;-56
2021/10/23 04:18:28;;;;;;;7.00;2.20;;;;;;;;;;5065286;28;20031;-56
2021/10/23 04:20:53;;;;;;;6.13;1.80;;;;;;;;;;5065104;28;20024;-55
2021/10/23 04:23:19;;;;;;;5.35;2.20;;;;;;;;;;5069770;28;20027;-56
2021/10/23 04:25:44;;;;;;;9.00;2.67;;;;;;;;;;5070588;28;20051;-55
2021/10/23 04:28:09;;;;;;;7.35;2.70;;;;;;;;;;5067855;28;20020;-56
2021/10/23 04:30:35;;;;;;;5.47;2.00;;;;;;;;;;5068931;28;20406;-55
2021/10/23 04:33:01;;;;;;;6.22;2.03;;;;;;;;;;5065951;28;20020;-56
2021/10/23 04:35:26;;;;;;;5.50;1.98;;;;;;;;;;5066295;28;20066;-56
2021/10/23 04:37:52;;;;;;;9.10;2.17;;;;;;;;;;5065604;28;20111;-56
2021/10/23 04:40:17;;;;;;;4.70;1.88;;;;;;;;;;5066346;28;20031;-57
2021/10/23 04:42:43;;;;;;;7.13;2.03;;;;;;;;;;5069040;28;20035;-54
2021/10/23 04:45:09;;;;;;;5.68;2.13;;;;;;;;;;5071370;28;20031;-55
2021/10/23 04:47:34;;;;;;;7.60;2.00;;;;;;;;;;5070556;28;20055;-56
2021/10/23 04:50:00;;;;;;;4.50;2.00;;;;;;;;;;5070498;28;20025;-56
2021/10/23 04:52:25;;;;;;;7.60;2.33;;;;;;;;;;5073627;28;20123;-54
2021/10/23 04:54:50;;;;;;;7.53;2.15;;;;;;;;;;5072323;28;20062;-56
2021/10/23 04:57:16;;;;;;;5.50;2.20;;;;;;;;;;5074831;28;20036;-55
2021/10/23 04:59:41;;;;;;;3.05;1.80;;;;;;;;;;5067857;28;20119;-55
2021/10/23 05:02:07;;;;;;;9.82;1.92;;;;;;;;;;5070811;28;20028;-54
2021/10/23 05:04:32;;;;;;;5.85;2.10;;;;;;;;;;5070433;28;20465;-56
2021/10/23 05:06:57;;;;;;;8.25;2.08;;;;;;;;;;5069684;28;20043;-56
2021/10/23 05:09:23;;;;;;;5.70;2.03;;;;;;;;;;5067620;28;20420;-56
2021/10/23 05:11:48;;;;;;;5.32;1.88;;;;;;;;;;5076056;28;20024;-57
2021/10/23 05:14:14;;;;;;;4.95;2.10;;;;;;;;;;5066838;28;20038;-57
2021/10/23 05:16:40;;;;;;;6.65;2.10;;;;;;;;;;5069595;28;20390;-58
2021/10/23 05:19:05;;;;;;;6.13;2.20;;;;;;;;;;5071324;28;20040;-57
2021/10/23 05:21:31;;;;;;;5.95;2.10;;;;;;;;;;5071534;28;20490;-56
2021/10/23 05:23:58;;;;;;;4.15;1.75;;;;;;;;;;5071264;28;20028;-56
2021/10/23 05:26:23;;;;;;;4.57;2.10;;;;;;;;;;5067514;28;20024;-57
2021/10/23 05:28:49;;;;;;;5.80;3.10;;;;;;;;;;5071565;28;20106;-57
2021/10/23 05:31:14;;;;;;;7.40;2.75;;;;;;;;;;5067695;28;20044;-57
2021/10/23 05:33:40;;;;;;;5.60;2.47;;;;;;;;;;5071096;28;20051;-57
2021/10/23 05:36:05;;;;;;;5.43;2.95;;;;;;;;;;5073001;28;20074;-57
2021/10/23 05:38:31;;;;;;;8.10;3.38;;;;;;;;;;5071215;28;20059;-57
2021/10/23 05:40:57;;;;;;;9.23;4.30;;;;;;;;;;5069540;28;20082;-56
2021/10/23 05:43:22;;;;;;;14.48;5.93;;;;;;;;;;5069614;28;20482;-57
2021/10/23 05:45:48;;;;;;;9.60;3.10;;;;;;;;;;5070972;28;20024;-57
2021/10/23 05:48:14;;;;;;;8.85;3.63;;;;;;;;;;5065239;28;20504;-57
2021/10/23 05:50:40;;;;;;;9.43;4.78;;;;;;;;;;5070326;28;20074;-57
2021/10/23 05:53:05;;;;;;;7.75;3.28;;;;;;;;;;5068287;28;20032;-56
2021/10/23 05:55:30;;;;;;;12.70;3.85;;;;;;;;;;5069735;28;20040;-57
2021/10/23 05:57:56;;;;;;;11.63;5.20;;;;;;;;;;5068407;28;20051;-57
2021/10/23 06:00:21;;;;;;;13.02;5.90;;;;;;;;;;5071983;28;20067;-58
2021/10/23 06:02:48;;;;;;;11.68;5.15;;;;;;;;;;5067212;28;20124;-57
2021/10/23 06:05:14;;;;;;;13.10;5.22;;;;;;;;;;5071876;28;20115;-57
2021/10/23 06:07:42;;;;;;;13.00;5.57;;;;;;;;;;5073849;28;20028;-58
2021/10/23 06:10:10;;;;;;;11.65;5.07;;;;;;;;;;5065316;28;20055;-57
2021/10/23 06:12:36;;;;;;;9.35;3.70;;;;;;;;;;5073116;28;20085;-58
2021/10/23 06:15:02;;;;;;;10.77;4.50;;;;;;;;;;5068975;28;20066;-57
2021/10/23 06:17:27;;;;;;;9.18;2.53;;;;;;;;;;5069173;28;20036;-58
2021/10/23 06:19:53;;;;;;;8.85;3.60;;;;;;;;;;5065900;28;20040;-57
2021/10/23 06:22:19;;;;;;;8.23;3.40;;;;;;;;;;5069351;28;20021;-57
2021/10/23 06:24:44;;;;;;;10.15;3.55;;;;;;;;;;5068616;28;20502;-57
2021/10/23 06:27:10;;;;;;;14.45;7.53;;;;;;;;;;5066999;28;20043;-57
2021/10/23 06:29:35;;;;;;;14.43;9.02;;;;;;;;;;5066709;28;20016;-58
2021/10/23 06:32:01;;;;;;;6.20;3.67;;;;;;;;;;5069024;28;20032;-56
2021/10/23 06:34:28;;;;;;;6.00;3.05;;;;;;;;;;5067264;28;20043;-57
2021/10/23 06:36:53;;;;;;;6.05;2.63;;;;;;;;;;5068028;28;20031;-58
2021/10/23 06:39:19;;;;;;;6.93;2.63;;;;;;;;;;5069842;28;20467;-57
2021/10/23 06:41:44;;;;;;;6.03;2.78;;;;;;;;;;5069840;28;20101;-57
2021/10/23 06:44:10;;;;;;;12.02;4.82;;;;;;;;;;5069467;28;20502;-57
2021/10/23 06:46:36;;;;;;;8.35;3.90;;;;;;;;;;5066755;28;20033;-57
2021/10/23 06:49:05;;;;;;;6.60;2.50;;;;;;;;;;5067618;28;20538;-57
2021/10/23 06:51:30;;;;;;;9.50;3.30;;;;;;;;;;5070057;28;20036;-57
2021/10/23 06:53:57;;;;;;;6.25;3.10;;;;;;;;;;5069824;28;20039;-57
2021/10/23 06:56:23;;;;;;;10.45;3.28;;;;;;;;;;5067214;28;20031;-57
2021/10/23 06:58:49;;;;;;;9.93;3.03;;;;;;;;;;5069673;28;20047;-56
2021/10/23 07:01:14;;;;;;;6.35;2.30;;;;;;;;;;5067228;28;20483;-57
2021/10/23 07:03:40;;;;;;;5.63;2.47;;;;;;;;;;5067066;28;20028;-58
2021/10/23 07:06:05;;;;;;;7.53;2.65;;;;;;;;;;5069105;28;21438;-56
2021/10/23 07:08:31;;;;;;;5.82;2.15;;;;;;;;;;5068042;28;20064;-57
2021/10/23 07:10:56;;;;;;;8.25;2.50;;;;;;;;;;5069014;28;20036;-57
2021/10/23 07:13:21;;;;;;;8.70;2.55;;;;;;;;;;5064532;28;20025;-57
2021/10/23 07:15:47;;;;;;;4.93;2.80;;;;;;;;;;5070207;28;20024;-57
2021/10/23 07:18:12;;;;;;;3.78;2.20;;;;;;;;;;5067866;28;20066;-57
2021/10/23 07:20:38;;;;;;;6.20;3.78;;;;;;;;;;5069347;28;20052;-59
2021/10/23 07:23:04;;;;;;;14.85;4.93;;;;;;;;;;5067821;28;20549;-59
2021/10/23 07:25:29;;;;;;;10.95;4.82;;;;;;;;;;5066358;28;20498;-59
2021/10/23 07:27:55;;;;;;;7.90;3.03;;;;;;;;;;5066872;28;20020;-59
2021/10/23 07:30:20;;;;;;;6.45;2.60;;;;;;;;;;5066936;28;20086;-58
2021/10/23 07:32:46;;;;;;;7.97;3.13;;;;;;;;;;5071570;28;20024;-57
2021/10/23 07:35:12;;;;;;;8.90;3.25;;;;;;;;;;5064488;28;20513;-58
2021/10/23 07:37:39;;;;;;;6.85;3.42;;;;;;;;;;5067994;28;20098;-58
2021/10/23 07:40:07;;;;;;;6.50;3.30;;;;;;;;;;5072338;28;20032;-57
2021/10/23 07:42:33;;;;;;;7.95;2.80;;;;;;;;;;5068552;28;20392;-58
2021/10/23 07:45:00;;;;;;;4.60;2.65;;;;;;;;;;5067105;28;20111;-58
2021/10/23 07:47:25;;;;;;;8.35;2.45;;;;;;;;;;5066948;28;20031;-58
2021/10/23 07:49:51;;;;;;;4.00;2.30;;;;;;;;;;5068537;28;20017;-56
2021/10/23 07:52:17;;;;;;;5.10;2.30;;;;;;;;;;5064374;28;20035;-58
2021/10/23 07:54:42;;;;;;;4.22;2.22;;;;;;;;;;5071102;28;20490;-58
2021/10/23 07:57:08;;;;;;;7.82;2.60;;;;;;;;;;5067341;28;20024;-58
2021/10/23 07:59:34;;;;;;;8.00;2.85;;;;;;;;;;5066981;28;20029;-58
2021/10/23 08:02:01;;;;;;;9.45;2.72;;;;;;;;;;5069539;28;20516;-58
2021/10/23 08:04:28;;;;;;;6.32;2.53;;;;;;;;;;5068998;28;20032;-58
2021/10/23 08:06:53;;;;;;;5.43;2.10;;;;;;;;;;5067214;28;20021;-59
2021/10/23 08:09:19;;;;;;;5.43;2.30;;;;;;;;;;5072140;28;20023;-56
2021/10/23 08:11:44;;;;;;;3.67;2.10;;;;;;;;;;5063797;28;20086;-57
2021/10/23 08:14:14;;;;;;;8.73;2.60;;;;;;;;;;5067053;28;20042;-58
2021/10/23 08:16:40;;;;;;;6.25;2.03;;;;;;;;;;5065942;28;20035;-57
2021/10/23 08:19:05;;;;;;;4.85;2.38;;;;;;;;;;5066218;28;20040;-57
2021/10/23 08:21:32;;;;;;;4.85;2.10;;;;;;;;;;5069226;28;20583;-59
2021/10/23 08:23:58;;;;;;;5.55;2.22;;;;;;;;;;5066022;28;20040;-57
2021/10/23 08:26:23;;;;;;;5.30;2.17;;;;;;;;;;5065139;28;20471;-57
2021/10/23 08:28:49;;;;;;;5.97;2.60;;;;;;;;;;5066203;28;20028;-58
2021/10/23 08:31:14;;;;;;;5.60;2.50;;;;;;;;;;5066006;28;20387;-58
2021/10/23 08:33:40;;;;;;;18.80;5.40;;;;;;;;;;5066473;28;20048;-57
2021/10/23 08:36:05;;;;;;;12.63;4.63;;;;;;;;;;5067395;28;20063;-57
2021/10/23 08:38:31;;;;;;;8.50;3.40;;;;;;;;;;5067640;28;20399;-57
2021/10/23 08:40:57;;;;;;;11.25;3.85;;;;;;;;;;5066305;28;20036;-57
2021/10/23 08:43:24;;;;;;;8.20;3.25;;;;;;;;;;5064987;28;20021;-58
2021/10/23 08:45:55;;;;;;;7.78;3.15;;;;;;;;;;5066115;28;20413;-57
2021/10/23 08:48:22;;;;;;;8.20;3.08;;;;;;;;;;5064515;28;20105;-57
2021/10/23 08:50:48;;;;;;;5.28;2.92;;;;;;;;;;5064129;28;20824;-56
2021/10/23 08:53:14;;;;;;;11.43;4.53;;;;;;;;;;5065789;28;20115;-57
2021/10/23 08:55:39;;;;;;;9.00;3.90;;;;;;;;;;5065784;28;20017;-57
2021/10/23 08:58:09;;;;;;;8.75;3.60;;;;;;;;;;5068184;28;20138;-57
2021/10/23 09:00:35;;;;;;;38.22;9.00;;;;;;;;;;5063987;28;20059;-57
2021/10/23 09:03:00;;;;;;;101.22;21.85;;;;;;;;;;5065984;28;20068;-58
2021/10/23 09:05:26;;;;;;;101.13;20.00;;;;;;;;;;5068143;28;20472;-58
2021/10/23 09:07:52;;;;;;;64.28;16.35;;;;;;;;;;5064857;28;20036;-58
2021/10/23 09:10:30;;;;;;;39.13;10.27;;;;;;;;;;5067762;28;20122;-58
2021/10/23 09:13:04;;;;;;;13.10;4.53;;;;;;;;;;5061699;28;20297;-58
2021/10/23 09:15:39;;;;;;;18.27;3.25;;;;;;;;;;5068792;28;20078;-57
2021/10/23 09:18:05;;;;;;;6.63;2.60;;;;;;;;;;5069241;28;20512;-57
2021/10/23 09:20:42;;;;;;;7.38;2.80;;;;;;;;;;5068450;28;20043;-57
2021/10/23 09:23:21;;;;;;;12.68;3.25;;;;;;;;;;5064863;28;20028;-58
2021/10/23 09:25:48;;;;;;;7.10;2.72;;;;;;;;;;5067132;28;20027;-57
2021/10/23 09:28:35;;;;;;;7.38;3.10;;;;;;;;;;5066923;28;20097;-57
2021/10/23 09:31:00;;;;;;;9.73;3.17;;;;;;;;;;5071431;28;20024;-57
2021/10/23 09:33:31;;;;;;;6.43;2.75;;;;;;;;;;5068334;28;20031;-58
2021/10/23 09:36:03;;;;;;;12.02;3.15;;;;;;;;;;5068595;28;20481;-58
2021/10/23 09:38:31;;;;;;;18.35;5.47;;;;;;;;;;5069985;28;20097;-57
2021/10/23 09:41:13;;;;;;;14.83;4.47;;;;;;;;;;5070714;28;20029;-58
2021/10/23 09:43:38;;;;;;;15.80;4.88;;;;;;;;;;5069476;28;20032;-58
2021/10/23 09:46:10;;;;;;;15.07;5.00;;;;;;;;;;5069368;28;20051;-57
2021/10/23 09:48:37;;;;;;;19.33;5.13;;;;;;;;;;5067025;28;20055;-59
2021/10/23 09:51:20;;;;;;;13.30;4.47;;;;;;;;;;5069560;28;20023;-58
2021/10/23 09:53:48;;;;;;;22.10;7.05;;;;;;;;;;5066467;28;20100;-58
2021/10/23 09:56:34;;;;;;;23.27;7.10;;;;;;;;;;5069552;28;20352;-58
2021/10/23 09:59:07;;;;;;;25.65;6.68;;;;;;;;;;5069450;28;20032;-58
2021/10/23 10:01:40;;;;;;;26.35;7.15;;;;;;;;;;5070442;28;20028;-58
2021/10/23 10:04:08;;;;;;;24.30;7.40;;;;;;;;;;5067483;28;20048;-58
2021/10/23 10:06:38;;;;;;;12.50;4.47;;;;;;;;;;5066863;28;20036;-58
2021/10/23 10:09:05;;;;;;;11.48;4.20;;;;;;;;;;5071277;28;20129;-58
2021/10/23 10:11:31;;;;;;;14.40;5.05;;;;;;;;;;5070448;28;20055;-58
2021/10/23 10:13:57;;;;;;;13.05;3.58;;;;;;;;;;5065839;28;20073;-58
2021/10/23 10:16:25;;;;;;;8.85;3.60;;;;;;;;;;5066462;28;20481;-58
2021/10/23 10:18:52;;;;;;;12.10;3.40;;;;;;;;;;5074055;28;20025;-58
2021/10/23 10:21:19;;;;;;;11.63;3.60;;;;;;;;;;5067763;28;20043;-59
2021/10/23 10:23:47;;;;;;;7.72;3.10;;;;;;;;;;5067348;28;20382;-59
2021/10/23 10:26:25;;;;;;;11.90;4.35;;;;;;;;;;5068427;28;20017;-58
2021/10/23 10:29:09;;;;;;;9.65;3.17;;;;;;;;;;5066869;28;20028;-58
2021/10/23 10:31:46;;;;;;;45.55;17.75;;;;;;;;;;5068920;28;20499;-57
2021/10/23 10:34:32;;;;;;;24.40;9.77;;;;;;;;;;5070082;28;20467;-58
2021/10/23 10:45:34;;;;;;;11.65;4.95;;;;;;;;;;5064371;28;20047;-58
2021/10/23 10:48:11;;;;;;;12.73;5.13;;;;;;;;;;5064069;28;20086;-60
2021/10/23 10:50:53;;;;;;;6.97;3.03;;;;;;;;;;5067777;28;20376;-58
2021/10/23 10:53:24;;;;;;;7.15;2.92;;;;;;;;;;5064367;28;20047;-59
2021/10/23 10:55:56;;;;;;;8.63;3.10;;;;;;;;;;5067564;28;20020;-58
2021/10/23 10:58:43;;;;;;;5.72;2.83;;;;;;;;;;5060056;28;20056;-58
2021/10/23 11:01:19;;;;;;;10.13;3.15;;;;;;;;;;5067418;28;20544;-59
2021/10/23 11:03:48;;;;;;;7.85;2.55;;;;;;;;;;5076582;28;20032;-59
2021/10/23 11:06:32;;;;;;;6.80;2.90;;;;;;;;;;5062936;28;20108;-60
2021/10/23 11:09:16;;;;;;;6.38;2.60;;;;;;;;;;5059613;28;20537;-59
2021/10/23 11:11:45;;;;;;;3.22;2.05;;;;;;;;;;5065297;28;20894;-58
2021/10/23 11:14:16;;;;;;;4.17;2.27;;;;;;;;;;5063719;28;20028;-59
2021/10/23 11:16:42;;;;;;;3.78;1.90;;;;;;;;;;5061535;28;20564;-58
2021/10/23 11:19:09;;;;;;;4.80;1.90;;;;;;;;;;5065798;28;20028;-58
2021/10/23 11:21:37;;;;;;;4.80;1.80;;;;;;;;;;5066796;28;20111;-59
2021/10/23 11:24:02;;;;;;;5.07;2.38;;;;;;;;;;5064283;28;20477;-59
2021/10/23 11:26:28;;;;;;;2.38;1.75;;;;;;;;;;5063417;28;20033;-59
2021/10/23 11:28:54;;;;;;;3.65;2.00;;;;;;;;;;5065444;28;20086;-59
2021/10/23 11:31:21;;;;;;;5.22;2.13;;;;;;;;;;5063294;28;20415;-58
2021/10/23 11:33:47;;;;;;;5.28;2.22;;;;;;;;;;5069211;28;20029;-59
2021/10/23 11:36:19;;;;;;;4.30;2.08;;;;;;;;;;5067643;28;20024;-59
2021/10/23 11:38:49;;;;;;;5.82;2.50;;;;;;;;;;5065653;28;20036;-59
2021/10/23 11:41:22;;;;;;;6.85;1.80;;;;;;;;;;5065582;28;20556;-59
2021/10/23 11:43:47;;;;;;;4.07;1.70;;;;;;;;;;5062791;28;20029;-58
2021/10/23 11:46:13;;;;;;;5.20;2.13;;;;;;;;;;5066557;28;20027;-58
2021/10/23 11:48:38;;;;;;;6.03;2.53;;;;;;;;;;5063201;28;20032;-59
2021/10/23 11:51:04;;;;;;;2.92;2.05;;;;;;;;;;5062355;28;20017;-58
2021/10/23 11:53:32;;;;;;;3.78;2.03;;;;;;;;;;5065751;28;20063;-59
2021/10/23 11:56:02;;;;;;;7.00;3.33;;;;;;;;;;5062561;28;20548;-58
2021/10/23 11:58:54;;;;;;;11.45;4.32;;;;;;;;;;5065330;28;20040;-59
2021/10/23 12:01:21;;;;;;;7.28;3.15;;;;;;;;;;5062104;28;20127;-59
2021/10/23 12:03:50;;;;;;;4.43;2.00;;;;;;;;;;5066285;28;20036;-58
2021/10/23 12:06:20;;;;;;;11.48;9.93;;;;;;;;;;5064772;28;20033;-59
2021/10/23 12:08:50;;;;;;;4.05;2.25;;;;;;;;;;5060086;28;20028;-59
2021/10/23 12:11:35;;;;;;;4.00;1.60;;;;;;;;;;5065569;28;20020;-59
2021/10/23 12:14:08;;;;;;;6.72;2.05;;;;;;;;;;5064117;28;20402;-59
2021/10/23 12:16:40;;;;;;;8.07;2.00;;;;;;;;;;5065052;28;20124;-59
2021/10/23 12:19:06;;;;;;;5.35;2.25;;;;;;;;;;5060557;28;20544;-60
2021/10/23 12:21:38;;;;;;;4.10;1.88;;;;;;;;;;5065122;28;20103;-59
2021/10/23 12:24:21;;;;;;;4.35;1.77;;;;;;;;;;5066970;28;20317;-60
2021/10/23 12:27:08;;;;;;;6.25;2.72;;;;;;;;;;5059182;28;20037;-59
2021/10/23 12:29:35;;;;;;;5.82;2.60;;;;;;;;;;5061333;28;20101;-59
2021/10/23 12:32:05;;;;;;;5.90;2.50;;;;;;;;;;5064696;28;20078;-59
2021/10/23 12:34:51;;;;;;;7.38;2.63;;;;;;;;;;5064205;28;20031;-60
2021/10/23 12:37:26;;;;;;;6.78;2.78;;;;;;;;;;5068242;28;20119;-58
2021/10/23 12:40:04;;;;;;;7.15;2.95;;;;;;;;;;5062369;28;20028;-58
2021/10/23 12:42:29;;;;;;;10.52;2.80;;;;;;;;;;5065042;28;20021;-59
2021/10/23 12:44:55;;;;;;;5.40;2.63;;;;;;;;;;5062296;28;20028;-60
2021/10/23 12:47:20;;;;;;;7.78;2.60;;;;;;;;;;5063212;28;20024;-59
2021/10/23 12:49:45;;;;;;;6.78;3.10;;;;;;;;;;5063789;28;20024;-58
2021/10/23 12:52:11;;;;;;;7.13;2.88;;;;;;;;;;5067636;28;20047;-59
2021/10/23 12:54:36;;;;;;;7.43;2.70;;;;;;;;;;5064387;28;20173;-60
2021/10/23 12:57:02;;;;;;;8.27;3.08;;;;;;;;;;5066948;28;20548;-59
2021/10/23 12:59:27;;;;;;;9.50;2.67;;;;;;;;;;5065014;28;20032;-59
2021/10/23 13:01:53;;;;;;;4.90;2.70;;;;;;;;;;5064368;28;20024;-59
2021/10/23 13:04:18;;;;;;;4.50;2.55;;;;;;;;;;5069032;28;20036;-58
2021/10/23 13:06:45;;;;;;;9.10;4.38;;;;;;;;;;5071050;28;20324;-59
2021/10/23 13:09:11;;;;;;;10.82;4.32;;;;;;;;;;5063781;28;20398;-58
2021/10/23 13:11:39;;;;;;;12.20;5.53;;;;;;;;;;5067806;28;20103;-59
2021/10/23 13:14:05;;;;;;;27.60;10.98;;;;;;;;;;5069553;28;21246;-58
2021/10/23 13:16:30;;;;;;;31.10;11.13;;;;;;;;;;5065138;28;20105;-58
2021/10/23 13:18:55;;;;;;;22.40;7.82;;;;;;;;;;5062603;28;20078;-59
2021/10/23 13:21:21;;;;;;;8.80;3.70;;;;;;;;;;5068404;28;20047;-61
2021/10/23 13:23:47;;;;;;;7.60;3.38;;;;;;;;;;5067657;28;20025;-59
2021/10/23 13:26:13;;;;;;;23.33;7.88;;;;;;;;;;5069789;28;20027;-59
2021/10/23 13:28:39;;;;;;;16.90;5.35;;;;;;;;;;5066818;28;20025;-60
2021/10/23 13:31:04;;;;;;;24.77;9.23;;;;;;;;;;5068016;28;20206;-58
2021/10/23 13:33:30;;;;;;;18.38;7.13;;;;;;;;;;5068028;28;20027;-59
2021/10/23 13:35:57;;;;;;;34.28;11.48;;;;;;;;;;5065012;28;20399;-60
2021/10/23 13:38:23;;;;;;;39.15;14.38;;;;;;;;;;5067810;28;20034;-59
2021/10/23 13:40:48;;;;;;;34.20;13.23;;;;;;;;;;5069095;28;20043;-59
2021/10/23 13:43:13;;;;;;;11.48;5.50;;;;;;;;;;5063474;28;20031;-59
2021/10/23 13:45:39;;;;;;;8.95;4.30;;;;;;;;;;5068931;28;20032;-61
2021/10/23 13:48:04;;;;;;;6.10;3.35;;;;;;;;;;5064459;28;20032;-59
2021/10/23 13:50:34;;;;;;;5.25;2.67;;;;;;;;;;5063343;28;20020;-59
2021/10/23 13:52:59;;;;;;;5.43;2.78;;;;;;;;;;5066473;28;20403;-59
2021/10/23 13:55:25;;;;;;;5.47;3.03;;;;;;;;;;5067987;28;20028;-59
2021/10/23 13:57:52;;;;;;;5.43;2.50;;;;;;;;;;5065035;28;20107;-59
2021/10/23 14:00:19;;;;;;;4.60;2.50;;;;;;;;;;5067543;28;20410;-59
2021/10/23 14:02:45;;;;;;;6.15;2.50;;;;;;;;;;5065644;28;20032;-59
2021/10/23 14:05:11;;;;;;;4.88;2.70;;;;;;;;;;5066338;28;20112;-59
2021/10/23 14:07:36;;;;;;;4.22;2.40;;;;;;;;;;5067860;28;20099;-60
2021/10/23 14:10:02;;;;;;;5.38;2.67;;;;;;;;;;5071002;28;20024;-59
2021/10/23 14:12:28;;;;;;;5.00;3.00;;;;;;;;;;5063809;28;20032;-58
2021/10/23 14:14:53;;;;;;;5.70;2.08;;;;;;;;;;5064755;28;20035;-60
2021/10/23 14:17:18;;;;;;;4.20;2.65;;;;;;;;;;5064665;28;20020;-59
2021/10/23 14:19:44;;;;;;;3.85;1.70;;;;;;;;;;5066950;28;20024;-58
2021/10/23 14:22:13;;;;;;;4.63;1.30;;;;;;;;;;5066416;28;20044;-58
2021/10/23 14:24:39;;;;;;;3.97;1.30;;;;;;;;;;5065774;28;20108;-58
2021/10/23 14:27:12;;;;;;;5.35;1.80;;;;;;;;;;5065072;28;20125;-58
2021/10/23 14:29:38;;;;;;;1.73;1.40;;;;;;;;;;5064756;28;20093;-59
2021/10/23 14:32:04;;;;;;;4.60;1.60;;;;;;;;;;5064327;28;20433;-58
2021/10/23 14:34:29;;;;;;;5.15;1.83;;;;;;;;;;5067720;28;20476;-58
2021/10/23 14:36:55;;;;;;;2.55;1.40;;;;;;;;;;5061216;28;20035;-58
2021/10/23 14:39:21;;;;;;;4.28;1.65;;;;;;;;;;5062114;28;20082;-58
2021/10/23 14:41:46;;;;;;;2.45;1.95;;;;;;;;;;5068114;28;20040;-59
2021/10/23 14:44:11;;;;;;;3.85;1.75;;;;;;;;;;5065633;28;20406;-59
2021/10/23 14:46:37;;;;;;;3.80;1.77;;;;;;;;;;5063677;28;20282;-59
2021/10/23 14:49:05;;;;;;;4.75;1.70;;;;;;;;;;5066241;28;20375;-58